createdAt,value
2018-03-26T00:00:46.941Z,26.48
2018-03-26T00:01:53.129Z,28.27
2018-03-26T00:02:59.340Z,30.23
2018-03-26T00:04:05.245Z,28.80
2018-03-26T00:05:11.670Z,27.15
2018-03-26T00:06:17.885Z,28.58
2018-03-26T00:07:24.083Z,34.88
2018-03-26T00:08:30.422Z,29.05
2018-03-26T00:09:36.799Z,27.13
2018-03-26T00:10:43.035Z,30.58
2018-03-26T00:11:50.783Z,30.20
2018-03-26T00:12:56.987Z,29.95
2018-03-26T00:14:03.585Z,30.10
2018-03-26T00:15:09.788Z,30.98
2018-03-26T00:16:16.045Z,31.42
2018-03-26T00:17:22.286Z,32.50
2018-03-26T00:18:28.499Z,32.97
2018-03-26T00:19:34.689Z,32.20
2018-03-26T00:20:42.062Z,29.25
2018-03-26T00:21:48.293Z,28.90
2018-03-26T00:22:54.742Z,29.48
2018-03-26T00:24:05.746Z,32.28
2018-03-26T00:25:11.986Z,33.92
2018-03-26T00:26:18.341Z,27.70
2018-03-26T00:27:24.808Z,32.35
2018-03-26T00:28:31.032Z,31.30
2018-03-26T00:29:36.946Z,31.77
2018-03-26T00:30:43.063Z,32.42
2018-03-26T00:31:49.275Z,37.17
2018-03-26T00:32:55.252Z,29.67
2018-03-26T00:34:01.476Z,32.90
2018-03-26T00:35:07.992Z,29.52
2018-03-26T00:36:14.298Z,32.85
2018-03-26T00:37:20.693Z,33.13
2018-03-26T00:38:26.878Z,34.65
2018-03-26T00:39:36.293Z,33.08
2018-03-26T00:40:42.764Z,31.70
2018-03-26T00:41:48.994Z,30.58
2018-03-26T00:42:55.242Z,32.10
2018-03-26T00:44:04.480Z,34.15
2018-03-26T00:45:10.791Z,31.10
2018-03-26T00:46:17.079Z,30.90
2018-03-26T00:47:23.237Z,29.50
2018-03-26T00:48:29.443Z,34.15
2018-03-26T00:49:35.729Z,32.75
2018-03-26T00:50:42.267Z,32.72
2018-03-26T00:51:54.444Z,33.58
2018-03-26T00:53:01.493Z,32.50
2018-03-26T00:54:07.641Z,35.90
2018-03-26T00:55:14.742Z,35.53
2018-03-26T00:56:21.782Z,30.17
2018-03-26T00:57:28.209Z,35.30
2018-03-26T00:58:34.685Z,32.92
2018-03-26T00:59:40.862Z,34.40
2018-03-26T01:00:47.099Z,32.05
2018-03-26T01:01:52.984Z,36.00
2018-03-26T01:02:59.007Z,37.03
2018-03-26T01:04:04.927Z,30.33
2018-03-26T01:05:14.788Z,32.28
2018-03-26T01:06:22.924Z,34.03
2018-03-26T01:07:29.278Z,34.70
2018-03-26T01:08:35.447Z,35.13
2018-03-26T01:09:41.636Z,36.15
2018-03-26T01:10:47.884Z,35.53
2018-03-26T01:11:54.157Z,33.15
2018-03-26T01:13:00.585Z,36.03
2018-03-26T01:14:06.726Z,32.03
2018-03-26T01:15:12.577Z,34.95
2018-03-26T01:16:18.809Z,38.67
2018-03-26T01:17:25.551Z,36.05
2018-03-26T01:18:31.945Z,35.72
2018-03-26T01:19:38.404Z,33.85
2018-03-26T01:20:44.561Z,33.75
2018-03-26T01:21:50.812Z,35.75
2018-03-26T01:22:57.034Z,33.88
2018-03-26T01:24:03.268Z,33.35
2018-03-26T01:25:09.454Z,33.53
2018-03-26T01:26:15.738Z,33.85
2018-03-26T01:27:22.026Z,31.23
2018-03-26T01:28:28.228Z,33.80
2018-03-26T01:29:34.692Z,31.20
2018-03-26T01:30:40.909Z,31.67
2018-03-26T01:31:47.144Z,31.42
2018-03-26T01:32:53.314Z,34.08
2018-03-26T01:33:59.510Z,35.35
2018-03-26T01:35:05.592Z,32.10
2018-03-26T01:36:12.012Z,33.25
2018-03-26T01:37:18.243Z,34.92
2018-03-26T01:38:24.490Z,34.15
2018-03-26T01:39:30.717Z,31.12
2018-03-26T01:40:37.248Z,35.05
2018-03-26T01:41:43.556Z,37.95
2018-03-26T01:42:49.883Z,32.85
2018-03-26T01:43:55.784Z,38.63
2018-03-26T01:45:02.005Z,34.85
2018-03-26T01:46:08.258Z,32.80
2018-03-26T01:47:14.521Z,35.88
2018-03-26T01:48:21.139Z,32.03
2018-03-26T01:49:27.384Z,34.78
2018-03-26T01:50:33.400Z,34.13
2018-03-26T01:51:39.917Z,33.55
2018-03-26T01:52:50.808Z,35.80
2018-03-26T01:53:57.052Z,36.72
2018-03-26T01:55:03.288Z,34.88
2018-03-26T01:56:09.543Z,33.80
2018-03-26T01:57:15.697Z,34.85
2018-03-26T01:58:21.876Z,35.90
2018-03-26T01:59:28.803Z,36.67
2018-03-26T02:00:35.882Z,33.45
2018-03-26T02:01:41.723Z,35.58
2018-03-26T02:02:48.045Z,34.35
2018-03-26T02:03:54.228Z,37.13
2018-03-26T02:05:00.386Z,36.72
2018-03-26T02:06:06.636Z,33.22
2018-03-26T02:07:12.893Z,36.80
2018-03-26T02:08:18.802Z,31.98
2018-03-26T02:09:30.213Z,36.30
2018-03-26T02:10:36.181Z,36.17
2018-03-26T02:11:46.338Z,35.10
2018-03-26T02:12:53.107Z,36.95
2018-03-26T02:13:59.388Z,33.95
2018-03-26T02:15:05.568Z,34.50
2018-03-26T02:16:11.805Z,35.60
2018-03-26T02:17:17.996Z,36.17
2018-03-26T02:18:24.247Z,34.38
2018-03-26T02:19:30.521Z,35.25
2018-03-26T02:20:36.803Z,33.63
2018-03-26T02:21:42.982Z,32.90
2018-03-26T02:22:49.183Z,33.45
2018-03-26T02:23:55.393Z,34.95
2018-03-26T02:25:01.592Z,31.92
2018-03-26T02:26:09.121Z,30.37
2018-03-26T02:27:15.396Z,33.30
2018-03-26T02:28:21.625Z,31.83
2018-03-26T02:29:27.815Z,36.38
2018-03-26T02:30:34.088Z,31.87
2018-03-26T02:31:40.342Z,33.83
2018-03-26T02:32:46.564Z,38.22
2018-03-26T02:33:52.773Z,34.55
2018-03-26T02:34:58.939Z,35.00
2018-03-26T02:36:04.804Z,35.13
2018-03-26T02:37:10.379Z,34.45
2018-03-26T02:38:19.421Z,35.08
2018-03-26T02:39:25.645Z,34.60
2018-03-26T02:40:31.998Z,35.42
2018-03-26T02:41:39.981Z,36.40
2018-03-26T02:42:49.833Z,33.92
2018-03-26T02:43:56.034Z,34.75
2018-03-26T02:45:02.101Z,37.20
2018-03-26T02:46:08.320Z,33.95
2018-03-26T02:47:14.538Z,30.33
2018-03-26T02:48:20.733Z,31.35
2018-03-26T02:49:26.946Z,30.08
2018-03-26T02:50:36.016Z,35.17
2018-03-26T02:51:42.269Z,35.72
2018-03-26T02:52:48.471Z,37.20
2018-03-26T02:53:54.733Z,36.83
2018-03-26T02:55:00.948Z,32.00
2018-03-26T02:56:07.094Z,32.63
2018-03-26T02:57:13.213Z,32.92
2018-03-26T02:58:19.441Z,34.40
2018-03-26T02:59:25.740Z,33.75
2018-03-26T03:00:32.131Z,32.05
2018-03-26T03:01:46.623Z,33.42
2018-03-26T03:04:10.095Z,38.22
2018-03-26T03:05:16.469Z,33.67
2018-03-26T03:06:22.721Z,34.35
2018-03-26T03:07:28.924Z,32.78
2018-03-26T03:08:35.149Z,36.90
2018-03-26T03:09:43.330Z,34.97
2018-03-26T03:10:49.540Z,33.88
2018-03-26T03:11:55.396Z,34.75
2018-03-26T03:13:01.606Z,37.15
2018-03-26T03:14:15.329Z,35.45
2018-03-26T03:15:21.541Z,33.58
2018-03-26T03:16:30.816Z,36.67
2018-03-26T03:17:36.708Z,33.92
2018-03-26T03:18:42.671Z,31.37
2018-03-26T03:19:49.035Z,33.45
2018-03-26T03:20:55.396Z,33.30
2018-03-26T03:22:01.635Z,34.22
2018-03-26T03:23:13.150Z,32.70
2018-03-26T03:24:19.292Z,37.83
2018-03-26T03:25:25.478Z,38.78
2018-03-26T03:26:31.657Z,37.22
2018-03-26T03:27:38.685Z,34.65
2018-03-26T03:28:44.980Z,32.25
2018-03-26T03:29:51.327Z,32.80
2018-03-26T03:30:57.599Z,31.85
2018-03-26T03:32:03.580Z,36.85
2018-03-26T03:33:10.372Z,34.63
2018-03-26T03:34:16.648Z,36.03
2018-03-26T03:35:28.296Z,36.55
2018-03-26T03:36:36.415Z,36.08
2018-03-26T03:37:42.779Z,37.47
2018-03-26T03:38:48.973Z,34.80
2018-03-26T03:39:54.924Z,37.90
2018-03-26T03:41:01.258Z,33.70
2018-03-26T03:42:07.424Z,34.72
2018-03-26T03:43:13.628Z,33.67
2018-03-26T03:44:19.879Z,36.40
2018-03-26T03:45:29.205Z,33.80
2018-03-26T03:46:37.406Z,33.85
2018-03-26T03:47:43.666Z,32.45
2018-03-26T03:48:49.891Z,35.78
2018-03-26T03:49:56.093Z,33.30
2018-03-26T03:51:02.284Z,38.75
2018-03-26T03:52:08.523Z,35.45
2018-03-26T03:53:14.752Z,34.45
2018-03-26T03:54:20.754Z,32.67
2018-03-26T03:55:28.932Z,32.45
2018-03-26T03:56:35.168Z,34.33
2018-03-26T03:57:41.304Z,35.28
2018-03-26T03:58:52.124Z,33.80
2018-03-26T03:59:58.342Z,37.47
2018-03-26T04:01:04.657Z,34.50
2018-03-26T04:02:11.205Z,36.35
2018-03-26T04:03:18.040Z,33.08
2018-03-26T04:04:24.290Z,34.65
2018-03-26T04:05:30.579Z,37.22
2018-03-26T04:06:36.794Z,37.38
2018-03-26T04:07:43.117Z,33.80
2018-03-26T04:08:49.353Z,35.00
2018-03-26T04:10:00.738Z,32.65
2018-03-26T04:11:07.085Z,38.53
2018-03-26T04:12:19.042Z,36.90
2018-03-26T04:13:29.210Z,35.13
2018-03-26T04:14:35.461Z,35.25
2018-03-26T04:15:42.347Z,34.38
2018-03-26T04:16:55.220Z,34.85
2018-03-26T04:18:01.441Z,35.90
2018-03-26T04:19:07.730Z,33.97
2018-03-26T04:20:13.797Z,33.15
2018-03-26T04:21:20.153Z,33.17
2018-03-26T04:22:26.074Z,38.17
2018-03-26T04:23:32.358Z,33.10
2018-03-26T04:24:38.602Z,33.08
2018-03-26T04:25:44.862Z,32.97
2018-03-26T04:26:54.248Z,36.08
2018-03-26T04:28:00.478Z,41.28
2018-03-26T04:29:06.792Z,32.40
2018-03-26T04:30:13.017Z,34.03
2018-03-26T04:31:19.459Z,36.35
2018-03-26T04:32:31.679Z,33.78
2018-03-26T04:33:37.983Z,30.85
2018-03-26T04:34:44.171Z,37.95
2018-03-26T04:35:50.427Z,33.72
2018-03-26T04:36:56.680Z,38.55
2018-03-26T04:38:02.861Z,33.53
2018-03-26T04:39:08.395Z,34.85
2018-03-26T04:40:19.020Z,35.88
2018-03-26T04:41:25.267Z,35.72
2018-03-26T04:42:31.552Z,36.63
2018-03-26T04:43:37.720Z,31.87
2018-03-26T04:44:43.931Z,37.47
2018-03-26T04:45:50.218Z,34.15
2018-03-26T04:46:56.523Z,37.03
2018-03-26T04:48:02.782Z,34.67
2018-03-26T04:49:11.894Z,33.90
2018-03-26T04:50:19.230Z,37.15
2018-03-26T04:51:25.494Z,36.80
2018-03-26T04:52:36.902Z,33.38
2018-03-26T04:53:45.135Z,36.15
2018-03-26T04:54:56.313Z,32.47
2018-03-26T04:56:03.472Z,34.35
2018-03-26T04:57:09.861Z,38.30
2018-03-26T04:58:16.096Z,33.08
2018-03-26T04:59:22.385Z,36.72
2018-03-26T05:00:31.682Z,33.67
2018-03-26T05:01:38.019Z,33.30
2018-03-26T05:02:44.186Z,34.40
2018-03-26T05:03:50.408Z,35.75
2018-03-26T05:04:57.319Z,36.83
2018-03-26T05:06:04.114Z,33.88
2018-03-26T05:07:13.226Z,34.30
2018-03-26T05:08:19.393Z,36.67
2018-03-26T05:09:30.166Z,35.85
2018-03-26T05:10:38.004Z,34.47
2018-03-26T05:11:44.212Z,35.85
2018-03-26T05:12:51.277Z,34.75
2018-03-26T05:13:57.495Z,33.97
2018-03-26T05:15:03.718Z,35.67
2018-03-26T05:16:09.938Z,36.25
2018-03-26T05:17:16.044Z,38.63
2018-03-26T05:18:22.348Z,33.65
2018-03-26T05:19:28.519Z,35.05
2018-03-26T05:20:34.911Z,38.72
2018-03-26T05:21:41.192Z,34.22
2018-03-26T05:22:51.920Z,35.05
2018-03-26T05:23:59.150Z,36.72
2018-03-26T05:25:04.635Z,37.13
2018-03-26T05:26:10.866Z,38.65
2018-03-26T05:27:17.067Z,35.33
2018-03-26T05:28:26.146Z,38.10
2018-03-26T05:29:32.394Z,35.42
2018-03-26T05:30:38.594Z,36.03
2018-03-26T05:31:44.968Z,36.90
2018-03-26T05:32:51.274Z,36.65
2018-03-26T05:33:57.462Z,39.40
2018-03-26T05:35:08.413Z,36.40
2018-03-26T05:36:14.547Z,34.78
2018-03-26T05:37:24.197Z,34.60
2018-03-26T05:38:30.681Z,33.28
2018-03-26T05:39:36.884Z,37.33
2018-03-26T05:40:45.973Z,39.55
2018-03-26T05:41:51.958Z,36.90
2018-03-26T05:42:58.209Z,43.40
2018-03-26T05:44:04.385Z,37.85
2018-03-26T05:45:10.331Z,36.10
2018-03-26T05:46:16.607Z,32.92
2018-03-26T05:47:22.829Z,40.60
2018-03-26T05:48:31.116Z,33.63
2018-03-26T05:49:37.104Z,38.10
2018-03-26T05:50:48.509Z,39.10
2018-03-26T05:51:55.684Z,36.33
2018-03-26T05:53:02.075Z,37.80
2018-03-26T05:54:07.924Z,37.00
2018-03-26T05:55:14.108Z,35.17
2018-03-26T05:56:23.087Z,32.53
2018-03-26T05:57:29.301Z,35.75
2018-03-26T05:58:35.493Z,40.53
2018-03-26T05:59:41.745Z,35.85
2018-03-26T06:00:47.921Z,34.95
2018-03-26T06:01:54.103Z,36.75
2018-03-26T06:03:04.854Z,31.60
2018-03-26T06:04:11.031Z,37.15
2018-03-26T06:05:18.469Z,41.30
2018-03-26T06:06:24.745Z,35.05
2018-03-26T06:07:31.053Z,37.10
2018-03-26T06:08:37.745Z,35.55
2018-03-26T06:09:43.970Z,38.22
2018-03-26T06:10:50.185Z,37.17
2018-03-26T06:11:57.396Z,35.78
2018-03-26T06:13:15.302Z,35.00
2018-03-26T06:14:24.316Z,40.08
2018-03-26T06:15:30.727Z,37.20
2018-03-26T06:16:45.127Z,38.25
2018-03-26T06:17:50.885Z,39.00
2018-03-26T06:18:57.058Z,33.70
2018-03-26T06:20:04.572Z,44.92
2018-03-26T06:21:10.671Z,38.20
2018-03-26T06:22:16.777Z,34.63
2018-03-26T06:23:22.830Z,35.53
2018-03-26T06:24:33.964Z,36.80
2018-03-26T06:25:39.980Z,38.00
2018-03-26T06:26:46.024Z,37.28
2018-03-26T06:27:52.128Z,38.35
2018-03-26T06:28:58.140Z,36.28
2018-03-26T06:30:06.765Z,42.05
2018-03-26T06:31:12.783Z,30.70
2018-03-26T06:32:21.404Z,35.63
2018-03-26T06:33:29.055Z,34.15
2018-03-26T06:34:37.612Z,39.22
2018-03-26T06:35:43.661Z,34.95
2018-03-26T06:38:39.387Z,34.50
2018-03-26T06:39:45.560Z,36.88
2018-03-26T06:40:51.516Z,36.50
2018-03-26T06:41:57.685Z,36.88
2018-03-26T06:43:03.888Z,35.22
2018-03-26T06:44:11.741Z,35.25
2018-03-26T06:45:18.129Z,37.75
2018-03-26T06:46:27.218Z,35.42
2018-03-26T06:47:33.691Z,36.22
2018-03-26T06:48:40.980Z,34.08
2018-03-26T06:49:47.193Z,35.50
2018-03-26T06:50:53.617Z,32.03
2018-03-26T06:51:59.802Z,36.63
2018-03-26T06:53:06.089Z,33.25
2018-03-26T06:54:20.664Z,32.42
2018-03-26T06:55:35.110Z,33.83
2018-03-26T06:56:41.319Z,35.75
2018-03-26T06:57:47.518Z,35.35
2018-03-26T06:58:53.743Z,34.28
2018-03-26T06:59:59.980Z,34.42
2018-03-26T07:01:11.754Z,39.85
2018-03-26T07:02:17.982Z,32.78
2018-03-26T07:03:24.446Z,33.33
2018-03-26T07:04:30.773Z,31.30
2018-03-26T07:05:36.996Z,32.78
2018-03-26T07:06:43.229Z,34.90
2018-03-26T07:07:49.485Z,33.33
2018-03-26T07:08:55.707Z,33.65
2018-03-26T07:10:01.880Z,34.50
2018-03-26T07:11:08.101Z,33.15
2018-03-26T07:12:14.322Z,32.15
2018-03-26T07:13:21.857Z,34.92
2018-03-26T07:14:28.859Z,35.75
2018-03-26T07:15:39.979Z,34.85
2018-03-26T07:16:46.302Z,34.50
2018-03-26T07:17:52.500Z,36.72
2018-03-26T07:18:58.736Z,36.05
2018-03-26T07:20:04.731Z,38.13
2018-03-26T07:21:10.945Z,35.65
2018-03-26T07:22:17.159Z,41.15
2018-03-26T07:23:23.855Z,32.85
2018-03-26T07:24:30.029Z,38.03
2018-03-26T07:25:44.730Z,35.65
2018-03-26T07:26:50.931Z,32.88
2018-03-26T07:27:57.149Z,31.23
2018-03-26T07:29:09.252Z,31.52
2018-03-26T07:30:17.387Z,34.10
2018-03-26T07:31:23.514Z,37.42
2018-03-26T07:32:29.781Z,36.75
2018-03-26T07:33:35.940Z,37.20
2018-03-26T07:34:42.234Z,33.30
2018-03-26T07:35:48.392Z,36.92
2018-03-26T07:36:54.275Z,34.80
2018-03-26T07:38:00.872Z,38.05
2018-03-26T07:39:07.198Z,37.90
2018-03-26T07:40:13.404Z,37.00
2018-03-26T07:41:19.574Z,35.80
2018-03-26T07:42:25.834Z,35.90
2018-03-26T07:43:37.834Z,35.55
2018-03-26T07:44:45.204Z,38.58
2018-03-26T07:45:51.404Z,33.50
2018-03-26T07:46:57.631Z,35.38
2018-03-26T07:48:03.917Z,35.75
2018-03-26T07:49:15.097Z,35.35
2018-03-26T07:50:21.294Z,34.78
2018-03-26T07:51:27.471Z,39.25
2018-03-26T07:52:33.949Z,35.20
2018-03-26T07:53:40.151Z,37.15
2018-03-26T07:54:46.390Z,38.47
2018-03-26T07:55:52.558Z,37.80
2018-03-26T07:56:59.040Z,33.00
2018-03-26T07:58:09.249Z,38.13
2018-03-26T07:59:17.786Z,32.53
2018-03-26T08:00:24.073Z,34.28
2018-03-26T08:01:30.292Z,35.45
2018-03-26T08:02:36.505Z,33.72
2018-03-26T08:03:42.916Z,35.95
2018-03-26T08:04:49.125Z,39.75
2018-03-26T08:05:55.303Z,36.33
2018-03-26T08:07:01.516Z,40.72
2018-03-26T08:08:07.599Z,39.13
2018-03-26T08:09:14.797Z,39.33
2018-03-26T08:10:21.007Z,39.50
2018-03-26T08:11:27.027Z,37.10
2018-03-26T08:12:33.431Z,39.58
2018-03-26T08:13:40.642Z,36.15
2018-03-26T08:14:46.837Z,39.05
2018-03-26T08:15:53.042Z,38.75
2018-03-26T08:16:59.327Z,37.03
2018-03-26T08:18:05.222Z,37.85
2018-03-26T08:19:11.462Z,36.70
2018-03-26T08:20:18.009Z,41.50
2018-03-26T08:21:24.167Z,38.85
2018-03-26T08:22:30.386Z,40.92
2018-03-26T08:23:36.570Z,39.55
2018-03-26T08:24:47.866Z,39.60
2018-03-26T08:25:54.093Z,39.67
2018-03-26T08:27:00.368Z,42.35
2018-03-26T08:28:06.905Z,38.38
2018-03-26T08:29:13.191Z,39.72
2018-03-26T08:30:24.076Z,37.28
2018-03-26T08:31:30.300Z,41.83
2018-03-26T08:32:36.538Z,45.12
2018-03-26T08:33:42.703Z,37.85
2018-03-26T08:34:48.933Z,44.58
2018-03-26T08:35:55.085Z,41.33
2018-03-26T08:37:01.287Z,40.47
2018-03-26T08:38:07.492Z,41.03
2018-03-26T08:39:13.640Z,42.58
2018-03-26T08:40:25.930Z,45.88
2018-03-26T08:41:33.851Z,41.00
2018-03-26T08:42:40.004Z,41.97
2018-03-26T08:43:46.365Z,40.38
2018-03-26T08:44:52.559Z,39.70
2018-03-26T08:45:58.911Z,45.08
2018-03-26T08:47:06.105Z,44.03
2018-03-26T08:48:15.774Z,44.40
2018-03-26T08:49:21.974Z,42.65
2018-03-26T08:50:28.201Z,43.65
2018-03-26T08:51:39.566Z,48.28
2018-03-26T08:52:45.777Z,42.78
2018-03-26T08:53:54.821Z,44.10
2018-03-26T08:55:03.064Z,42.65
2018-03-26T08:56:09.263Z,41.08
2018-03-26T08:57:15.538Z,43.63
2018-03-26T08:58:21.758Z,43.33
2018-03-26T08:59:28.029Z,45.12
2018-03-26T09:00:36.965Z,44.95
2018-03-26T09:01:43.200Z,40.58
2018-03-26T09:02:56.564Z,41.25
2018-03-26T09:04:02.726Z,42.50
2018-03-26T09:05:14.936Z,46.50
2018-03-26T09:06:24.030Z,41.75
2018-03-26T09:07:33.163Z,44.30
2018-03-26T09:08:42.477Z,47.13
2018-03-26T09:09:48.653Z,45.90
2018-03-26T09:10:54.838Z,45.03
2018-03-26T09:12:00.810Z,44.42
2018-03-26T09:13:07.292Z,42.25
2018-03-26T09:14:18.544Z,45.92
2018-03-26T09:15:29.570Z,48.08
2018-03-26T09:16:36.047Z,44.60
2018-03-26T09:17:42.325Z,39.92
2018-03-26T09:18:51.706Z,46.90
2018-03-26T09:19:57.893Z,45.30
2018-03-26T09:21:04.658Z,47.40
2018-03-26T09:22:10.683Z,44.20
2018-03-26T09:23:17.893Z,44.92
2018-03-26T09:24:24.066Z,48.63
2018-03-26T09:25:30.409Z,44.05
2018-03-26T09:26:36.709Z,46.80
2018-03-26T09:27:42.932Z,44.42
2018-03-26T09:28:49.162Z,47.00
2018-03-26T09:29:55.399Z,41.95
2018-03-26T09:31:06.609Z,44.10
2018-03-26T09:32:12.857Z,41.13
2018-03-26T09:33:19.058Z,43.78
2018-03-26T09:34:30.938Z,45.03
2018-03-26T09:35:37.141Z,43.65
2018-03-26T09:36:43.319Z,42.10
2018-03-26T09:37:49.527Z,46.42
2018-03-26T09:38:55.697Z,45.22
2018-03-26T09:40:01.924Z,43.42
2018-03-26T09:41:07.759Z,48.70
2018-03-26T09:42:13.887Z,46.58
2018-03-26T09:43:26.133Z,47.45
2018-03-26T09:44:32.356Z,47.90
2018-03-26T09:45:38.589Z,46.50
2018-03-26T09:46:44.784Z,49.00
2018-03-26T09:47:51.977Z,47.17
2018-03-26T09:48:58.884Z,47.28
2018-03-26T09:50:04.688Z,50.30
2018-03-26T09:51:10.904Z,48.65
2018-03-26T09:52:22.350Z,49.70
2018-03-26T09:53:28.595Z,52.53
2018-03-26T09:54:34.806Z,47.47
2018-03-26T09:55:41.012Z,50.90
2018-03-26T09:56:47.238Z,45.55
2018-03-26T09:57:53.509Z,48.85
2018-03-26T09:58:59.747Z,51.33
2018-03-26T10:00:05.872Z,49.90
2018-03-26T10:01:18.031Z,52.78
2018-03-26T10:02:24.277Z,51.20
2018-03-26T10:03:30.499Z,48.08
2018-03-26T10:04:42.107Z,50.90
2018-03-26T10:05:50.394Z,51.80
2018-03-26T10:06:56.606Z,53.28
2018-03-26T10:08:03.208Z,47.90
2018-03-26T10:09:09.488Z,52.15
2018-03-26T10:10:15.735Z,49.20
2018-03-26T10:11:21.918Z,52.42
2018-03-26T10:12:28.142Z,48.42
2018-03-26T10:13:36.378Z,49.35
2018-03-26T10:14:42.532Z,52.72
2018-03-26T10:15:48.695Z,47.00
2018-03-26T10:16:54.851Z,49.28
2018-03-26T10:18:01.361Z,48.30
2018-03-26T10:19:07.576Z,51.67
2018-03-26T10:20:13.815Z,56.30
2018-03-26T10:21:22.939Z,50.90
2018-03-26T10:22:28.874Z,49.00
2018-03-26T10:23:35.367Z,48.65
2018-03-26T10:24:42.741Z,51.60
2018-03-26T10:25:53.591Z,50.42
2018-03-26T10:26:59.837Z,51.55
2018-03-26T10:28:05.693Z,47.55
2018-03-26T10:29:17.561Z,44.08
2018-03-26T10:30:27.764Z,49.80
2018-03-26T10:31:34.000Z,47.80
2018-03-26T10:32:40.241Z,46.53
2018-03-26T10:33:46.661Z,52.25
2018-03-26T10:34:52.801Z,49.17
2018-03-26T10:35:58.946Z,48.67
2018-03-26T10:37:04.803Z,47.38
2018-03-26T10:38:11.031Z,49.60
2018-03-26T10:39:17.242Z,48.80
2018-03-26T10:40:23.459Z,45.92
2018-03-26T10:41:36.277Z,47.08
2018-03-26T10:42:42.559Z,47.00
2018-03-26T10:43:50.712Z,49.10
2018-03-26T10:44:57.035Z,43.53
2018-03-26T10:46:02.948Z,44.63
2018-03-26T10:47:15.166Z,46.58
2018-03-26T10:48:21.481Z,40.17
2018-03-26T10:49:27.773Z,45.28
2018-03-26T10:50:34.133Z,44.85
2018-03-26T10:51:40.904Z,47.78
2018-03-26T10:52:47.226Z,46.65
2018-03-26T10:53:58.851Z,48.05
2018-03-26T10:55:04.951Z,41.88
2018-03-26T10:56:12.325Z,45.53
2018-03-26T10:57:18.839Z,44.60
2018-03-26T10:58:25.058Z,40.83
2018-03-26T10:59:32.439Z,44.30
2018-03-26T11:00:47.907Z,44.90
2018-03-26T11:01:54.195Z,50.20
2018-03-26T11:03:00.405Z,50.03
2018-03-26T11:04:06.614Z,47.35
2018-03-26T11:05:12.410Z,47.08
2018-03-26T11:06:18.700Z,47.78
2018-03-26T11:07:25.302Z,47.92
2018-03-26T11:08:31.520Z,46.65
2018-03-26T11:09:37.496Z,44.58
2018-03-26T11:10:46.516Z,42.22
2018-03-26T11:11:53.172Z,42.90
2018-03-26T11:12:59.437Z,42.38
2018-03-26T11:14:05.670Z,41.33
2018-03-26T11:15:11.853Z,41.22
2018-03-26T11:16:18.098Z,36.65
2018-03-26T11:17:24.455Z,45.33
2018-03-26T11:18:33.775Z,39.90
2018-03-26T11:19:40.035Z,46.37
2018-03-26T11:20:45.955Z,36.20
2018-03-26T11:21:52.202Z,38.35
2018-03-26T11:22:58.180Z,37.15
2018-03-26T11:24:04.252Z,41.40
2018-03-26T11:25:10.485Z,38.95
2018-03-26T11:26:16.787Z,34.58
2018-03-26T11:27:23.044Z,39.35
2018-03-26T11:28:29.343Z,38.40
2018-03-26T11:29:36.668Z,39.60
2018-03-26T11:30:42.951Z,39.65
2018-03-26T11:31:49.272Z,40.90
2018-03-26T11:32:55.494Z,35.55
2018-03-26T11:34:04.793Z,36.00
2018-03-26T11:35:11.060Z,34.38
2018-03-26T11:36:17.306Z,34.05
2018-03-26T11:37:28.547Z,33.28
2018-03-26T11:38:36.799Z,43.35
2018-03-26T11:39:43.060Z,37.35
2018-03-26T11:40:49.282Z,42.97
2018-03-26T11:41:55.569Z,40.08
2018-03-26T11:43:01.794Z,32.35
2018-03-26T11:44:08.020Z,38.67
2018-03-26T11:45:14.287Z,41.30
2018-03-26T11:46:20.787Z,34.80
2018-03-26T11:47:27.005Z,38.13
2018-03-26T11:48:40.648Z,36.50
2018-03-26T11:49:47.066Z,38.78
2018-03-26T11:50:53.276Z,35.80
2018-03-26T11:51:59.533Z,38.22
2018-03-26T11:53:05.418Z,33.38
2018-03-26T11:54:12.649Z,36.58
2018-03-26T11:55:18.981Z,37.03
2018-03-26T11:56:25.713Z,32.47
2018-03-26T11:57:32.002Z,38.08
2018-03-26T11:58:38.265Z,39.92
2018-03-26T11:59:44.511Z,35.00
2018-03-26T12:00:50.883Z,33.40
2018-03-26T12:01:56.759Z,34.25
2018-03-26T12:03:02.986Z,33.40
2018-03-26T12:04:09.270Z,34.35
2018-03-26T12:05:15.509Z,32.83
2018-03-26T12:06:22.194Z,32.35
2018-03-26T12:07:28.465Z,34.03
2018-03-26T12:08:34.710Z,31.37
2018-03-26T12:09:41.827Z,37.03
2018-03-26T12:10:48.072Z,33.60
2018-03-26T12:11:54.313Z,33.08
2018-03-26T12:13:00.548Z,33.35
2018-03-26T12:14:06.510Z,33.38
2018-03-26T12:15:12.776Z,31.37
2018-03-26T12:16:19.444Z,30.62
2018-03-26T12:17:28.421Z,32.45
2018-03-26T12:18:40.258Z,36.13
2018-03-26T12:20:01.002Z,33.58
2018-03-26T12:21:06.344Z,32.05
2018-03-26T12:22:11.997Z,35.03
2018-03-26T12:23:29.235Z,31.98
2018-03-26T12:24:46.339Z,37.90
2018-03-26T12:25:52.268Z,36.25
2018-03-26T12:26:58.708Z,32.13
2018-03-26T12:28:16.084Z,32.60
2018-03-26T12:29:36.048Z,29.08
2018-03-26T12:30:42.022Z,34.67
2018-03-26T12:31:55.214Z,29.45
2018-03-26T12:33:05.816Z,33.70
2018-03-26T12:34:23.801Z,34.55
2018-03-26T12:35:40.848Z,30.95
2018-03-26T12:36:46.794Z,35.70
2018-03-26T12:37:53.302Z,29.70
2018-03-26T12:38:59.597Z,34.53
2018-03-26T12:40:04.903Z,32.85
2018-03-26T12:41:10.897Z,35.58
2018-03-26T12:42:17.139Z,35.05
2018-03-26T12:43:23.372Z,32.03
2018-03-26T12:44:40.402Z,31.55
2018-03-26T12:47:28.978Z,33.50
2018-03-26T12:48:35.230Z,27.73
2018-03-26T12:49:41.501Z,30.92
2018-03-26T12:50:58.771Z,34.95
2018-03-26T12:52:21.103Z,32.83
2018-03-26T12:53:32.249Z,30.88
2018-03-26T12:54:43.743Z,34.58
2018-03-26T12:55:50.688Z,32.53
2018-03-26T12:58:52.038Z,32.22
2018-03-26T13:00:02.598Z,32.83
2018-03-26T13:01:22.800Z,35.83
2018-03-26T13:02:30.745Z,33.80
2018-03-26T13:03:37.540Z,35.83
2018-03-26T13:04:43.908Z,30.40
2018-03-26T13:05:50.856Z,33.15
2018-03-26T13:06:57.162Z,30.65
2018-03-26T13:08:03.750Z,28.73
2018-03-26T13:09:09.747Z,30.00
2018-03-26T13:10:24.707Z,32.53
2018-03-26T13:11:30.939Z,31.73
2018-03-26T13:12:37.419Z,28.90
2018-03-26T13:13:44.055Z,31.83
2018-03-26T13:14:51.164Z,30.85
2018-03-26T13:15:58.159Z,26.58
2018-03-26T13:17:04.373Z,28.50
2018-03-26T13:18:10.762Z,27.58
2018-03-26T13:19:17.087Z,28.27
2018-03-26T13:20:23.427Z,34.70
2018-03-26T13:21:29.692Z,25.52
2018-03-26T13:22:36.114Z,32.85
2018-03-26T13:23:42.123Z,27.85
2018-03-26T13:24:48.349Z,28.92
2018-03-26T13:26:00.715Z,31.40
2018-03-26T13:27:07.062Z,29.40
2018-03-26T13:28:16.635Z,31.30
2018-03-26T13:29:22.990Z,29.55
2018-03-26T13:30:29.291Z,29.02
2018-03-26T13:31:35.635Z,31.83
2018-03-26T13:32:42.055Z,30.50
2018-03-26T13:33:48.413Z,25.33
2018-03-26T13:34:54.871Z,31.05
2018-03-26T13:36:01.152Z,30.37
2018-03-26T13:37:07.799Z,24.92
2018-03-26T13:38:14.020Z,25.20
2018-03-26T13:39:20.292Z,27.30
2018-03-26T13:40:26.492Z,26.48
2018-03-26T13:41:37.807Z,27.20
2018-03-26T13:42:45.473Z,29.33
2018-03-26T13:43:52.102Z,27.80
2018-03-26T13:44:58.517Z,30.35
2018-03-26T13:46:04.445Z,28.95
2018-03-26T13:47:10.416Z,33.40
2018-03-26T13:48:16.715Z,28.52
2018-03-26T13:49:23.028Z,33.92
2018-03-26T13:50:29.297Z,33.03
2018-03-26T13:51:35.565Z,32.60
2018-03-26T13:52:46.028Z,33.22
2018-03-26T13:53:52.137Z,37.17
2018-03-26T13:55:03.391Z,32.38
2018-03-26T13:56:12.139Z,31.75
2018-03-26T13:57:18.812Z,29.40
2018-03-26T13:58:24.706Z,31.50
2018-03-26T13:59:30.963Z,32.50
2018-03-26T14:00:37.204Z,30.83
2018-03-26T14:01:48.304Z,38.50
2018-03-26T14:02:59.304Z,31.00
2018-03-26T14:04:05.182Z,28.67
2018-03-26T14:05:11.381Z,31.77
2018-03-26T14:06:20.556Z,27.48
2018-03-26T14:07:26.809Z,31.42
2018-03-26T14:08:47.158Z,27.15
2018-03-26T14:10:04.235Z,30.65
2018-03-26T14:11:21.255Z,24.17
2018-03-26T14:12:42.303Z,28.35
2018-03-26T14:13:59.534Z,24.02
2018-03-26T14:15:16.690Z,28.95
2018-03-26T14:16:39.999Z,27.83
2018-03-26T14:17:49.961Z,23.30
2018-03-26T14:18:56.178Z,27.67
2018-03-26T14:20:09.311Z,29.77
2018-03-26T14:21:19.685Z,26.12
2018-03-26T14:22:32.879Z,28.27
2018-03-26T14:23:40.042Z,24.33
2018-03-26T14:24:46.659Z,28.00
2018-03-26T14:25:53.982Z,28.00
2018-03-26T14:27:00.276Z,26.80
2018-03-26T14:28:06.274Z,29.52
2018-03-26T14:29:12.888Z,30.60
2018-03-26T14:30:21.100Z,25.60
2018-03-26T14:31:27.635Z,30.20
2018-03-26T14:32:37.100Z,27.98
2018-03-26T14:33:45.063Z,31.95